sensor_id;sensor_type;location;lat;lon;timestamp;pressure;altitude;pressure_sealevel;temperature;humidity
79455;BME280;68900;52.134;5.420;2023-11-19T00:00:31;100904.78;;;12.51;100.00
79455;BME280;68900;52.134;5.420;2023-11-19T00:02:57;100898.38;;;12.52;100.00
79455;BME280;68900;52.134;5.420;2023-11-19T00:05:24;100891.94;;;12.53;100.00
79455;BME280;68900;52.134;5.420;2023-11-19T00:07:50;100893.81;;;12.52;100.00
79455;BME280;68900;52.134;5.420;2023-11-19T00:10:17;100897.50;;;12.51;100.00
79455;BME280;68900;52.134;5.420;2023-11-19T00:12:48;100891.25;;;12.51;100.00
79455;BME280;68900;52.134;5.420;2023-11-19T00:15:16;100885.84;;;12.51;100.00
79455;BME280;68900;52.134;5.420;2023-11-19T00:17:46;100894.44;;;12.46;100.00
79455;BME280;68900;52.134;5.420;2023-11-19T00:20:18;100888.88;;;12.48;100.00
79455;BME280;68900;52.134;5.420;2023-11-19T00:23:13;100893.44;;;12.47;100.00
79455;BME280;68900;52.134;5.420;2023-11-19T00:25:39;100894.97;;;12.50;100.00
79455;BME280;68900;52.134;5.420;2023-11-19T00:28:06;100896.13;;;12.47;100.00
79455;BME280;68900;52.134;5.420;2023-11-19T00:30:32;100881.75;;;12.47;100.00
79455;BME280;68900;52.134;5.420;2023-11-19T00:32:59;100887.19;;;12.47;100.00
79455;BME280;68900;52.134;5.420;2023-11-19T00:35:25;100872.78;;;12.46;100.00
79455;BME280;68900;52.134;5.420;2023-11-19T00:37:52;100877.00;;;12.49;100.00
79455;BME280;68900;52.134;5.420;2023-11-19T00:40:20;100879.06;;;12.47;100.00
79455;BME280;68900;52.134;5.420;2023-11-19T00:42:50;100876.50;;;12.45;100.00
79455;BME280;68900;52.134;5.420;2023-11-19T00:45:16;100868.06;;;12.48;100.00
79455;BME280;68900;52.134;5.420;2023-11-19T00:47:43;100863.66;;;12.47;100.00
79455;BME280;68900;52.134;5.420;2023-11-19T00:50:09;100864.53;;;12.48;100.00
79455;BME280;68900;52.134;5.420;2023-11-19T00:52:37;100854.56;;;12.48;100.00
79455;BME280;68900;52.134;5.420;2023-11-19T00:55:04;100854.69;;;12.47;100.00
79455;BME280;68900;52.134;5.420;2023-11-19T00:57:31;100847.09;;;12.50;100.00
79455;BME280;68900;52.134;5.420;2023-11-19T00:59:59;100855.38;;;12.49;100.00
79455;BME280;68900;52.134;5.420;2023-11-19T01:02:25;100858.94;;;12.49;100.00
79455;BME280;68900;52.134;5.420;2023-11-19T01:04:52;100863.81;;;12.46;100.00
79455;BME280;68900;52.134;5.420;2023-11-19T01:07:19;100857.41;;;12.47;100.00
79455;BME280;68900;52.134;5.420;2023-11-19T01:09:45;100855.56;;;12.47;100.00
79455;BME280;68900;52.134;5.420;2023-11-19T01:12:12;100859.97;;;12.48;100.00
79455;BME280;68900;52.134;5.420;2023-11-19T01:14:39;100872.78;;;12.46;100.00
79455;BME280;68900;52.134;5.420;2023-11-19T01:17:05;100854.84;;;12.45;100.00
79455;BME280;68900;52.134;5.420;2023-11-19T01:19:32;100855.72;;;12.46;100.00
79455;BME280;68900;52.134;5.420;2023-11-19T01:21:59;100844.53;;;12.49;100.00
79455;BME280;68900;52.134;5.420;2023-11-19T01:24:25;100840.84;;;12.50;100.00
79455;BME280;68900;52.134;5.420;2023-11-19T01:26:55;100838.81;;;12.52;100.00
79455;BME280;68900;52.134;5.420;2023-11-19T01:29:24;100845.41;;;12.49;100.00
79455;BME280;68900;52.134;5.420;2023-11-19T01:31:50;100828.31;;;12.49;100.00
79455;BME280;68900;52.134;5.420;2023-11-19T01:34:22;100826.31;;;12.51;100.00
79455;BME280;68900;52.134;5.420;2023-11-19T01:36:49;100839.13;;;12.49;100.00
79455;BME280;68900;52.134;5.420;2023-11-19T01:39:16;100837.97;;;12.51;100.00
79455;BME280;68900;52.134;5.420;2023-11-19T01:41:45;100846.75;;;12.53;100.00
79455;BME280;68900;52.134;5.420;2023-11-19T01:44:11;100833.41;;;12.52;100.00
79455;BME280;68900;52.134;5.420;2023-11-19T01:46:42;100840.16;;;12.48;100.00
79455;BME280;68900;52.134;5.420;2023-11-19T01:49:10;100842.53;;;12.51;100.00
79455;BME280;68900;52.134;5.420;2023-11-19T01:51:38;100837.13;;;12.51;100.00
79455;BME280;68900;52.134;5.420;2023-11-19T01:54:06;100833.06;;;12.55;100.00
79455;BME280;68900;52.134;5.420;2023-11-19T01:56:34;100839.34;;;12.55;100.00
79455;BME280;68900;52.134;5.420;2023-11-19T01:59:01;100837.63;;;12.54;100.00
79455;BME280;68900;52.134;5.420;2023-11-19T02:01:29;100838.63;;;12.53;100.00
79455;BME280;68900;52.134;5.420;2023-11-19T02:03:56;100835.94;;;12.53;100.00
79455;BME280;68900;52.134;5.420;2023-11-19T02:06:25;100842.53;;;12.51;100.00
79455;BME280;68900;52.134;5.420;2023-11-19T02:08:52;100841.69;;;12.50;100.00
79455;BME280;68900;52.134;5.420;2023-11-19T02:11:19;100829.16;;;12.49;100.00
79455;BME280;68900;52.134;5.420;2023-11-19T02:13:45;100822.22;;;12.47;100.00
79455;BME280;68900;52.134;5.420;2023-11-19T02:16:12;100823.38;;;12.44;100.00
79455;BME280;68900;52.134;5.420;2023-11-19T02:18:38;100831.19;;;12.39;100.00
79455;BME280;68900;52.134;5.420;2023-11-19T02:21:05;100835.03;;;12.36;100.00
79455;BME280;68900;52.134;5.420;2023-11-19T02:23:32;100833.53;;;12.34;100.00
79455;BME280;68900;52.134;5.420;2023-11-19T02:28:44;100851.25;;;12.28;100.00
79455;BME280;68900;52.134;5.420;2023-11-19T02:38:02;100857.94;;;12.16;100.00
79455;BME280;68900;52.134;5.420;2023-11-19T02:40:33;100844.91;;;12.12;100.00
79455;BME280;68900;52.134;5.420;2023-11-19T02:42:59;100844.22;;;12.10;100.00
79455;BME280;68900;52.134;5.420;2023-11-19T02:45:26;100848.06;;;12.07;100.00
79455;BME280;68900;52.134;5.420;2023-11-19T02:47:53;100838.28;;;12.06;100.00
79455;BME280;68900;52.134;5.420;2023-11-19T02:50:21;100840.31;;;12.04;100.00
79455;BME280;68900;52.134;5.420;2023-11-19T02:52:53;100830.66;;;12.02;100.00
79455;BME280;68900;52.134;5.420;2023-11-19T02:55:20;100832.34;;;12.03;100.00
79455;BME280;68900;52.134;5.420;2023-11-19T02:57:47;100835.38;;;12.00;100.00
79455;BME280;68900;52.134;5.420;2023-11-19T03:00:23;100849.22;;;11.97;100.00
79455;BME280;68900;52.134;5.420;2023-11-19T03:03:02;100854.78;;;11.95;100.00
79455;BME280;68900;52.134;5.420;2023-11-19T03:05:46;100839.41;;;11.95;100.00
79455;BME280;68900;52.134;5.420;2023-11-19T03:08:14;100838.91;;;11.92;100.00
79455;BME280;68900;52.134;5.420;2023-11-19T03:10:49;100839.19;;;11.89;100.00
79455;BME280;68900;52.134;5.420;2023-11-19T03:13:15;100841.38;;;11.85;100.00
79455;BME280;68900;52.134;5.420;2023-11-19T03:15:43;100843.56;;;11.82;100.00
79455;BME280;68900;52.134;5.420;2023-11-19T03:18:10;100846.59;;;11.79;100.00
79455;BME280;68900;52.134;5.420;2023-11-19T03:20:37;100853.13;;;11.76;100.00
79455;BME280;68900;52.134;5.420;2023-11-19T03:23:03;100839.09;;;11.73;100.00
79455;BME280;68900;52.134;5.420;2023-11-19T03:25:30;100847.50;;;11.70;100.00
79455;BME280;68900;52.134;5.420;2023-11-19T03:28:00;100843.25;;;11.67;100.00
79455;BME280;68900;52.134;5.420;2023-11-19T03:30:29;100841.88;;;11.63;100.00
79455;BME280;68900;52.134;5.420;2023-11-19T03:32:59;100841.34;;;11.60;100.00
79455;BME280;68900;52.134;5.420;2023-11-19T03:35:28;100836.25;;;11.57;100.00
79455;BME280;68900;52.134;5.420;2023-11-19T03:37:54;100826.63;;;11.54;100.00
79455;BME280;68900;52.134;5.420;2023-11-19T03:40:21;100822.34;;;11.51;100.00
79455;BME280;68900;52.134;5.420;2023-11-19T03:42:47;100821.69;;;11.49;100.00
79455;BME280;68900;52.134;5.420;2023-11-19T03:45:14;100813.72;;;11.48;100.00
79455;BME280;68900;52.134;5.420;2023-11-19T03:47:42;100811.50;;;11.43;100.00
79455;BME280;68900;52.134;5.420;2023-11-19T03:50:09;100824.34;;;11.41;100.00
79455;BME280;68900;52.134;5.420;2023-11-19T03:52:36;100829.03;;;11.39;100.00
79455;BME280;68900;52.134;5.420;2023-11-19T03:55:05;100841.00;;;11.37;100.00
79455;BME280;68900;52.134;5.420;2023-11-19T03:57:32;100842.00;;;11.36;100.00
79455;BME280;68900;52.134;5.420;2023-11-19T03:59:58;100844.00;;;11.34;100.00
79455;BME280;68900;52.134;5.420;2023-11-19T04:02:25;100851.44;;;11.32;100.00
79455;BME280;68900;52.134;5.420;2023-11-19T04:04:54;100847.34;;;11.28;100.00
79455;BME280;68900;52.134;5.420;2023-11-19T04:07:21;100854.75;;;11.26;100.00
79455;BME280;68900;52.134;5.420;2023-11-19T04:09:48;100853.91;;;11.25;100.00
79455;BME280;68900;52.134;5.420;2023-11-19T04:12:15;100852.19;;;11.24;100.00
79455;BME280;68900;52.134;5.420;2023-11-19T04:14:42;100854.22;;;11.22;100.00
79455;BME280;68900;52.134;5.420;2023-11-19T04:17:08;100850.66;;;11.22;100.00
79455;BME280;68900;52.134;5.420;2023-11-19T04:19:35;100856.38;;;11.19;100.00
79455;BME280;68900;52.134;5.420;2023-11-19T04:22:01;100860.22;;;11.16;100.00
79455;BME280;68900;52.134;5.420;2023-11-19T04:24:28;100857.53;;;11.16;100.00
79455;BME280;68900;52.134;5.420;2023-11-19T04:26:54;100865.63;;;11.16;100.00
79455;BME280;68900;52.134;5.420;2023-11-19T04:29:21;100863.94;;;11.15;100.00
79455;BME280;68900;52.134;5.420;2023-11-19T04:31:47;100856.69;;;11.16;100.00
79455;BME280;68900;52.134;5.420;2023-11-19T04:34:14;100851.44;;;11.14;100.00
79455;BME280;68900;52.134;5.420;2023-11-19T04:36:41;100856.16;;;11.12;100.00
79455;BME280;68900;52.134;5.420;2023-11-19T04:39:07;100856.28;;;11.11;100.00
79455;BME280;68900;52.134;5.420;2023-11-19T04:41:51;100858.31;;;11.08;100.00
79455;BME280;68900;52.134;5.420;2023-11-19T04:44:20;100868.56;;;11.05;100.00
79455;BME280;68900;52.134;5.420;2023-11-19T04:46:47;100862.31;;;11.04;100.00
79455;BME280;68900;52.134;5.420;2023-11-19T04:49:14;100866.16;;;11.02;100.00
79455;BME280;68900;52.134;5.420;2023-11-19T04:51:41;100863.63;;;11.00;100.00
79455;BME280;68900;52.134;5.420;2023-11-19T04:54:11;100857.53;;;10.98;100.00
79455;BME280;68900;52.134;5.420;2023-11-19T04:56:38;100855.81;;;10.97;100.00
79455;BME280;68900;52.134;5.420;2023-11-19T04:59:04;100840.63;;;10.96;100.00
79455;BME280;68900;52.134;5.420;2023-11-19T05:01:32;100847.19;;;10.94;100.00
79455;BME280;68900;52.134;5.420;2023-11-19T05:03:59;100848.34;;;10.91;100.00
79455;BME280;68900;52.134;5.420;2023-11-19T05:06:27;100853.91;;;10.90;100.00
79455;BME280;68900;52.134;5.420;2023-11-19T05:08:55;100863.00;;;10.89;100.00
79455;BME280;68900;52.134;5.420;2023-11-19T05:11:22;100874.66;;;10.89;100.00
79455;BME280;68900;52.134;5.420;2023-11-19T05:13:49;100879.34;;;10.87;100.00
79455;BME280;68900;52.134;5.420;2023-11-19T05:16:19;100869.72;;;10.85;100.00
79455;BME280;68900;52.134;5.420;2023-11-19T05:18:47;100876.63;;;10.87;100.00
79455;BME280;68900;52.134;5.420;2023-11-19T05:21:13;100871.41;;;10.86;100.00
79455;BME280;68900;52.134;5.420;2023-11-19T05:23:40;100863.59;;;10.83;100.00
79455;BME280;68900;52.134;5.420;2023-11-19T05:26:08;100861.94;;;10.82;100.00
79455;BME280;68900;52.134;5.420;2023-11-19T05:28:35;100861.22;;;10.80;100.00
79455;BME280;68900;52.134;5.420;2023-11-19T05:31:01;100862.38;;;10.77;100.00
79455;BME280;68900;52.134;5.420;2023-11-19T05:33:28;100864.22;;;10.77;100.00
79455;BME280;68900;52.134;5.420;2023-11-19T05:35:54;100865.91;;;10.78;100.00
79455;BME280;68900;52.134;5.420;2023-11-19T05:38:21;100856.28;;;10.75;100.00
79455;BME280;68900;52.134;5.420;2023-11-19T05:40:47;100864.50;;;10.74;100.00
79455;BME280;68900;52.134;5.420;2023-11-19T05:43:15;100864.69;;;10.72;100.00
79455;BME280;68900;52.134;5.420;2023-11-19T05:45:43;100866.69;;;10.70;100.00
79455;BME280;68900;52.134;5.420;2023-11-19T05:48:09;100855.03;;;10.70;100.00
79455;BME280;68900;52.134;5.420;2023-11-19T05:50:36;100865.81;;;10.70;100.00
79455;BME280;68900;52.134;5.420;2023-11-19T05:53:03;100865.81;;;10.70;100.00
79455;BME280;68900;52.134;5.420;2023-11-19T05:55:38;100868.69;;;10.68;100.00
79455;BME280;68900;52.134;5.420;2023-11-19T05:58:12;100871.69;;;10.65;100.00
79455;BME280;68900;52.134;5.420;2023-11-19T06:00:39;100869.81;;;10.66;100.00
79455;BME280;68900;52.134;5.420;2023-11-19T06:03:08;100868.97;;;10.65;100.00
79455;BME280;68900;52.134;5.420;2023-11-19T06:05:34;100865.44;;;10.64;100.00
79455;BME280;68900;52.134;5.420;2023-11-19T06:08:01;100863.56;;;10.65;100.00
79455;BME280;68900;52.134;5.420;2023-11-19T06:10:27;100866.59;;;10.62;100.00
79455;BME280;68900;52.134;5.420;2023-11-19T06:12:58;100856.66;;;10.62;100.00
79455;BME280;68900;52.134;5.420;2023-11-19T06:15:26;100864.75;;;10.62;100.00
79455;BME280;68900;52.134;5.420;2023-11-19T06:17:53;100863.72;;;10.63;100.00
79455;BME280;68900;52.134;5.420;2023-11-19T06:20:21;100862.03;;;10.62;100.00
79455;BME280;68900;52.134;5.420;2023-11-19T06:22:47;100872.84;;;10.62;100.00
79455;BME280;68900;52.134;5.420;2023-11-19T06:25:14;100871.28;;;10.60;100.00
79455;BME280;68900;52.134;5.420;2023-11-19T06:27:42;100879.53;;;10.58;100.00
79455;BME280;68900;52.134;5.420;2023-11-19T06:30:09;100877.97;;;10.56;100.00
79455;BME280;68900;52.134;5.420;2023-11-19T06:32:36;100875.41;;;10.54;100.00
79455;BME280;68900;52.134;5.420;2023-11-19T06:35:03;100884.38;;;10.55;100.00
79455;BME280;68900;52.134;5.420;2023-11-19T06:37:31;100889.75;;;10.55;100.00
79455;BME280;68900;52.134;5.420;2023-11-19T06:39:57;100879.13;;;10.53;100.00
79455;BME280;68900;52.134;5.420;2023-11-19T06:42:24;100892.75;;;10.52;100.00
79455;BME280;68900;52.134;5.420;2023-11-19T06:44:50;100887.69;;;10.49;100.00
79455;BME280;68900;52.134;5.420;2023-11-19T06:47:17;100888.66;;;10.48;100.00
79455;BME280;68900;52.134;5.420;2023-11-19T06:49:44;100899.59;;;10.46;100.00
79455;BME280;68900;52.134;5.420;2023-11-19T06:52:11;100902.28;;;10.46;100.00
79455;BME280;68900;52.134;5.420;2023-11-19T06:54:40;100898.75;;;10.46;100.00
79455;BME280;68900;52.134;5.420;2023-11-19T06:57:07;100898.06;;;10.44;100.00
79455;BME280;68900;52.134;5.420;2023-11-19T06:59:35;100903.47;;;10.44;100.00
79455;BME280;68900;52.134;5.420;2023-11-19T07:02:02;100906.00;;;10.45;100.00
79455;BME280;68900;52.134;5.420;2023-11-19T07:04:28;100906.00;;;10.45;100.00
79455;BME280;68900;52.134;5.420;2023-11-19T07:06:55;100904.31;;;10.44;100.00
79455;BME280;68900;52.134;5.420;2023-11-19T07:09:21;100910.38;;;10.46;100.00
79455;BME280;68900;52.134;5.420;2023-11-19T07:11:49;100912.22;;;10.46;100.00
79455;BME280;68900;52.134;5.420;2023-11-19T07:14:18;100912.09;;;10.47;100.00
79455;BME280;68900;52.134;5.420;2023-11-19T07:16:45;100917.50;;;10.47;100.00
79455;BME280;68900;52.134;5.420;2023-11-19T07:19:12;100918.34;;;10.48;100.00
79455;BME280;68900;52.134;5.420;2023-11-19T07:21:42;100915.66;;;10.48;100.00
79455;BME280;68900;52.134;5.420;2023-11-19T07:24:10;100928.13;;;10.49;100.00
79455;BME280;68900;52.134;5.420;2023-11-19T07:26:43;100925.28;;;10.50;100.00
79455;BME280;68900;52.134;5.420;2023-11-19T07:29:10;100933.38;;;10.50;100.00
79455;BME280;68900;52.134;5.420;2023-11-19T07:31:37;100930.66;;;10.50;100.00
79455;BME280;68900;52.134;5.420;2023-11-19T07:34:03;100930.53;;;10.52;100.00
79455;BME280;68900;52.134;5.420;2023-11-19T07:36:32;100934.94;;;10.53;100.00
79455;BME280;68900;52.134;5.420;2023-11-19T07:38:59;100933.22;;;10.52;100.00
79455;BME280;68900;52.134;5.420;2023-11-19T07:41:25;100937.47;;;10.54;100.00
79455;BME280;68900;52.134;5.420;2023-11-19T07:43:52;100938.47;;;10.53;100.00
79455;BME280;68900;52.134;5.420;2023-11-19T07:46:19;100929.53;;;10.53;100.00
79455;BME280;68900;52.134;5.420;2023-11-19T07:48:46;100930.22;;;10.55;100.00
79455;BME280;68900;52.134;5.420;2023-11-19T07:51:15;100942.72;;;10.56;100.00
79455;BME280;68900;52.134;5.420;2023-11-19T07:53:42;100935.47;;;10.56;100.00
79455;BME280;68900;52.134;5.420;2023-11-19T07:56:08;100938.19;;;10.56;100.00
79455;BME280;68900;52.134;5.420;2023-11-19T07:58:35;100929.78;;;10.59;100.00
79455;BME280;68900;52.134;5.420;2023-11-19T08:01:02;100934.31;;;10.59;100.00
79455;BME280;68900;52.134;5.420;2023-11-19T08:03:29;100928.78;;;10.60;100.00
79455;BME280;68900;52.134;5.420;2023-11-19T08:05:56;100920.69;;;10.60;100.00
79455;BME280;68900;52.134;5.420;2023-11-19T08:08:25;100922.53;;;10.60;100.00
79455;BME280;68900;52.134;5.420;2023-11-19T08:10:52;100932.34;;;10.61;100.00
79455;BME280;68900;52.134;5.420;2023-11-19T08:13:19;100930.50;;;10.61;100.00
79455;BME280;68900;52.134;5.420;2023-11-19T08:15:47;100920.53;;;10.62;100.00
79455;BME280;68900;52.134;5.420;2023-11-19T08:18:13;100930.19;;;10.64;100.00
79455;BME280;68900;52.134;5.420;2023-11-19T08:20:40;100935.56;;;10.64;100.00
79455;BME280;68900;52.134;5.420;2023-11-19T08:23:07;100930.03;;;10.66;100.00
79455;BME280;68900;52.134;5.420;2023-11-19T08:25:34;100937.13;;;10.67;100.00
79455;BME280;68900;52.134;5.420;2023-11-19T08:28:03;100925.34;;;10.68;100.00
79455;BME280;68900;52.134;5.420;2023-11-19T08:30:30;100924.19;;;10.71;100.00
79455;BME280;68900;52.134;5.420;2023-11-19T08:32:56;100933.28;;;10.70;100.00
79455;BME280;68900;52.134;5.420;2023-11-19T08:35:25;100936.53;;;10.73;100.00
79455;BME280;68900;52.134;5.420;2023-11-19T08:37:51;100942.75;;;10.74;100.00
79455;BME280;68900;52.134;5.420;2023-11-19T08:40:18;100932.69;;;10.76;100.00
79455;BME280;68900;52.134;5.420;2023-11-19T08:42:46;100942.31;;;10.78;100.00
79455;BME280;68900;52.134;5.420;2023-11-19T08:45:12;100943.72;;;10.82;100.00
79455;BME280;68900;52.134;5.420;2023-11-19T08:47:39;100956.38;;;10.82;100.00
79455;BME280;68900;52.134;5.420;2023-11-19T08:50:07;100949.50;;;10.87;100.00
79455;BME280;68900;52.134;5.420;2023-11-19T08:52:35;100951.75;;;10.92;100.00
79455;BME280;68900;52.134;5.420;2023-11-19T08:55:01;100946.22;;;10.93;100.00
79455;BME280;68900;52.134;5.420;2023-11-19T08:57:28;100950.31;;;10.97;100.00
79455;BME280;68900;52.134;5.420;2023-11-19T08:59:55;100950.16;;;10.99;100.00
79455;BME280;68900;52.134;5.420;2023-11-19T09:02:21;100945.75;;;10.98;100.00
79455;BME280;68900;52.134;5.420;2023-11-19T09:04:48;100951.56;;;11.03;100.00
79455;BME280;68900;52.134;5.420;2023-11-19T09:07:18;100943.72;;;11.10;100.00
79455;BME280;68900;52.134;5.420;2023-11-19T09:09:44;100947.94;;;11.12;100.00
79455;BME280;68900;52.134;5.420;2023-11-19T09:12:12;100949.47;;;11.15;100.00
79455;BME280;68900;52.134;5.420;2023-11-19T09:14:40;100950.03;;;11.18;100.00
79455;BME280;68900;52.134;5.420;2023-11-19T09:17:08;100947.34;;;11.18;100.00
79455;BME280;68900;52.134;5.420;2023-11-19T09:19:36;100934.38;;;11.22;100.00
79455;BME280;68900;52.134;5.420;2023-11-19T09:22:02;100937.16;;;11.30;100.00
79455;BME280;68900;52.134;5.420;2023-11-19T09:24:29;100948.66;;;11.32;100.00
79455;BME280;68900;52.134;5.420;2023-11-19T09:26:55;100948.50;;;11.33;99.96
79455;BME280;68900;52.134;5.420;2023-11-19T09:29:22;100936.41;;;11.37;100.00
79455;BME280;68900;52.134;5.420;2023-11-19T09:31:49;100937.94;;;11.40;99.85
79455;BME280;68900;52.134;5.420;2023-11-19T09:34:15;100950.44;;;11.41;99.72
79455;BME280;68900;52.134;5.420;2023-11-19T09:36:42;100951.28;;;11.41;99.54
79455;BME280;68900;52.134;5.420;2023-11-19T09:39:11;100949.28;;;11.43;99.56
79455;BME280;68900;52.134;5.420;2023-11-19T09:41:39;100941.88;;;11.45;99.72
79455;BME280;68900;52.134;5.420;2023-11-19T09:44:12;100943.25;;;11.49;99.31
79455;BME280;68900;52.134;5.420;2023-11-19T09:46:41;100932.97;;;11.53;99.18
79455;BME280;68900;52.134;5.420;2023-11-19T09:49:26;100941.22;;;11.51;99.30
79455;BME280;68900;52.134;5.420;2023-11-19T09:51:55;100937.38;;;11.54;98.93
79455;BME280;68900;52.134;5.420;2023-11-19T09:54:22;100942.66;;;11.56;99.12
79455;BME280;68900;52.134;5.420;2023-11-19T09:56:48;100924.41;;;11.58;99.02
79455;BME280;68900;52.134;5.420;2023-11-19T09:59:18;100936.78;;;11.60;98.71
79455;BME280;68900;52.134;5.420;2023-11-19T10:01:45;100925.97;;;11.60;98.88
79455;BME280;68900;52.134;5.420;2023-11-19T10:04:15;100922.25;;;11.61;98.71
79455;BME280;68900;52.134;5.420;2023-11-19T10:06:43;100925.31;;;11.66;98.20
79455;BME280;68900;52.134;5.420;2023-11-19T10:09:12;100923.31;;;11.68;97.98
79455;BME280;68900;52.134;5.420;2023-11-19T10:11:39;100929.25;;;11.72;98.53
79455;BME280;68900;52.134;5.420;2023-11-19T10:14:06;100925.28;;;11.76;98.26
79455;BME280;68900;52.134;5.420;2023-11-19T10:16:34;100920.72;;;11.76;98.42
79455;BME280;68900;52.134;5.420;2023-11-19T10:19:01;100910.59;;;11.78;97.89
79455;BME280;68900;52.134;5.420;2023-11-19T10:21:28;100897.63;;;11.82;97.84
79455;BME280;68900;52.134;5.420;2023-11-19T10:23:58;100903.41;;;11.87;97.64
79455;BME280;68900;52.134;5.420;2023-11-19T10:26:27;100897.03;;;11.96;97.56
79455;BME280;68900;52.134;5.420;2023-11-19T10:28:55;100910.94;;;12.01;96.56
79455;BME280;68900;52.134;5.420;2023-11-19T10:31:22;100898.78;;;12.05;96.07
79455;BME280;68900;52.134;5.420;2023-11-19T10:33:52;100891.41;;;12.15;95.41
79455;BME280;68900;52.134;5.420;2023-11-19T10:36:19;100906.13;;;12.21;95.55
79455;BME280;68900;52.134;5.420;2023-11-19T10:38:53;100896.34;;;12.20;95.37
79455;BME280;68900;52.134;5.420;2023-11-19T10:41:30;100895.88;;;12.24;94.94
79455;BME280;68900;52.134;5.420;2023-11-19T10:43:58;100893.31;;;12.23;94.54
79455;BME280;68900;52.134;5.420;2023-11-19T10:46:41;100898.88;;;12.21;94.96
79455;BME280;68900;52.134;5.420;2023-11-19T10:49:08;100897.53;;;12.25;94.50
79455;BME280;68900;52.134;5.420;2023-11-19T10:51:35;100911.75;;;12.27;95.18
79455;BME280;68900;52.134;5.420;2023-11-19T10:54:03;100893.34;;;12.31;94.82
79455;BME280;68900;52.134;5.420;2023-11-19T10:56:33;100891.84;;;12.36;94.01
79455;BME280;68900;52.134;5.420;2023-11-19T10:59:00;100894.56;;;12.36;94.13
79455;BME280;68900;52.134;5.420;2023-11-19T11:01:33;100896.94;;;12.39;93.61
79455;BME280;68900;52.134;5.420;2023-11-19T11:04:02;100898.34;;;12.44;93.79
79455;BME280;68900;52.134;5.420;2023-11-19T11:06:29;100892.38;;;12.40;94.07
79455;BME280;68900;52.134;5.420;2023-11-19T11:08:56;100891.22;;;12.43;93.43
79455;BME280;68900;52.134;5.420;2023-11-19T11:11:26;100895.78;;;12.42;93.66
79455;BME280;68900;52.134;5.420;2023-11-19T11:13:54;100898.63;;;12.40;93.50
79455;BME280;68900;52.134;5.420;2023-11-19T11:16:23;100905.06;;;12.39;93.66
79455;BME280;68900;52.134;5.420;2023-11-19T11:18:51;100902.72;;;12.45;93.69
79455;BME280;68900;52.134;5.420;2023-11-19T11:21:21;100906.78;;;12.49;93.25
79455;BME280;68900;52.134;5.420;2023-11-19T11:24:13;100892.94;;;12.52;92.80
79455;BME280;68900;52.134;5.420;2023-11-19T11:26:57;100895.66;;;12.52;92.74
79455;BME280;68900;52.134;5.420;2023-11-19T11:29:43;100871.81;;;12.55;92.50
79455;BME280;68900;52.134;5.420;2023-11-19T11:35:16;100889.53;;;12.50;92.21
79455;BME280;68900;52.134;5.420;2023-11-19T11:38:06;100883.50;;;12.56;92.26
79455;BME280;68900;52.134;5.420;2023-11-19T11:40:34;100893.97;;;12.59;92.32
79455;BME280;68900;52.134;5.420;2023-11-19T11:43:01;100890.97;;;12.62;92.50
79455;BME280;68900;52.134;5.420;2023-11-19T11:45:39;100889.94;;;12.63;91.89
79455;BME280;68900;52.134;5.420;2023-11-19T11:48:08;100884.84;;;12.60;92.34
79455;BME280;68900;52.134;5.420;2023-11-19T11:50:36;100881.44;;;12.58;92.39
79455;BME280;68900;52.134;5.420;2023-11-19T11:53:15;100883.16;;;12.59;92.74
79455;BME280;68900;52.134;5.420;2023-11-19T11:58:20;100886.22;;;12.64;92.31
79455;BME280;68900;52.134;5.420;2023-11-19T12:00:48;100888.06;;;12.63;92.22
79455;BME280;68900;52.134;5.420;2023-11-19T12:03:20;100878.78;;;12.66;91.49
79455;BME280;68900;52.134;5.420;2023-11-19T12:05:47;100886.91;;;12.66;92.10
79455;BME280;68900;52.134;5.420;2023-11-19T12:08:18;100882.50;;;12.65;91.54
79455;BME280;68900;52.134;5.420;2023-11-19T12:10:53;100876.25;;;12.64;91.57
79455;BME280;68900;52.134;5.420;2023-11-19T12:13:20;100873.69;;;12.63;91.58
79455;BME280;68900;52.134;5.420;2023-11-19T12:18:24;100863.19;;;12.60;91.65
79455;BME280;68900;52.134;5.420;2023-11-19T12:20:50;100861.34;;;12.60;91.50
79455;BME280;68900;52.134;5.420;2023-11-19T12:23:17;100858.31;;;12.63;91.65
79455;BME280;68900;52.134;5.420;2023-11-19T12:25:44;100855.44;;;12.65;91.62
79455;BME280;68900;52.134;5.420;2023-11-19T12:28:12;100862.56;;;12.66;91.43
79455;BME280;68900;52.134;5.420;2023-11-19T12:30:39;100862.88;;;12.63;91.84
79455;BME280;68900;52.134;5.420;2023-11-19T12:33:10;100860.16;;;12.63;91.89
79455;BME280;68900;52.134;5.420;2023-11-19T12:35:43;100862.03;;;12.62;91.26
79455;BME280;68900;52.134;5.420;2023-11-19T12:38:19;100859.34;;;12.62;91.43
79455;BME280;68900;52.134;5.420;2023-11-19T12:43:31;100865.75;;;12.61;91.95
79455;BME280;68900;52.134;5.420;2023-11-19T12:45:57;100878.44;;;12.61;91.92
79455;BME280;68900;52.134;5.420;2023-11-19T12:48:24;100870.47;;;12.59;91.66
79455;BME280;68900;52.134;5.420;2023-11-19T12:50:55;100861.19;;;12.62;91.28
79455;BME280;68900;52.134;5.420;2023-11-19T12:53:25;100870.31;;;12.61;91.39
79455;BME280;68900;52.134;5.420;2023-11-19T12:55:52;100868.63;;;12.60;91.05
79455;BME280;68900;52.134;5.420;2023-11-19T12:58:32;100862.19;;;12.61;91.16
79455;BME280;68900;52.134;5.420;2023-11-19T13:01:03;100863.19;;;12.60;91.33
79455;BME280;68900;52.134;5.420;2023-11-19T13:03:39;100873.19;;;12.59;91.20
79455;BME280;68900;52.134;5.420;2023-11-19T13:06:10;100866.59;;;12.62;91.28
79455;BME280;68900;52.134;5.420;2023-11-19T13:08:42;100863.41;;;12.66;90.46